Terminal Aerodrome Forecast
Issued by NWS

Home | Current Version | Previous Version | Text Only | Print | Product List | Glossary On
Versions: 1 2 3 4 5 6 7 8 9 10 11 12 13 14 15 16 17 18 19 20 21 22 23 24 25
254
FTUS43 KDLH 230526
TAFHIB
TAF
KHIB 230526Z 2306/2406 29005KT P6SM SCT090
     FM231000 VRB03KT 6SM BR SCT015
      TEMPO 2310/2313 3SM BR SCT008 BKN015
     FM231300 01008KT P6SM BKN010
     FM231700 02008KT P6SM BKN035
     FM232100 04006KT P6SM SCT040
     FM240300 VRB04KT P6SM SCT040=

USA.gov is the U.S. government's official web portal to all federal, state and local government web resources and services.